Time;durP1;ratioP1;P1;durP2;ratioP2;P2;SDS_P1;SDS_P2;PMS_P1;PMS_P2;Temp;Humidity;BMP_temperature;BMP_pressure;BME280_temperature;BME280_humidity;BME280_pressure;Samples;Min_cycle;Max_cycle;Signal;HPM_P1;HPM_P2
2023/04/09 00:01:28;;;;;;;55.00;36.50;;;;;;;;;;5022132;28;20052;-78
2023/04/09 00:03:54;;;;;;;56.75;37.22;;;;;;;;;;5032789;28;20045;-78
2023/04/09 00:06:20;;;;;;;58.80;38.83;;;;;;;;;;5036425;28;20481;-79
2023/04/09 00:08:46;;;;;;;54.70;38.03;;;;;;;;;;5016163;28;20056;-79
2023/04/09 00:11:12;;;;;;;56.80;37.60;;;;;;;;;;5040382;28;20261;-77
2023/04/09 00:13:38;;;;;;;50.80;36.83;;;;;;;;;;5013557;28;20057;-77
2023/04/09 00:16:05;;;;;;;52.72;36.53;;;;;;;;;;5020461;28;20127;-76
2023/04/09 00:18:31;;;;;;;56.58;36.35;;;;;;;;;;5035158;28;20053;-77
2023/04/09 00:20:57;;;;;;;58.70;39.20;;;;;;;;;;5038187;28;20095;-77
2023/04/09 00:23:23;;;;;;;56.83;37.90;;;;;;;;;;5016282;28;20539;-79
2023/04/09 00:25:49;;;;;;;56.10;38.50;;;;;;;;;;5018927;28;20041;-78
2023/04/09 00:28:15;;;;;;;56.60;39.63;;;;;;;;;;5029619;28;20065;-79
2023/04/09 00:30:41;;;;;;;55.58;38.33;;;;;;;;;;5012628;28;20662;-77
2023/04/09 00:33:07;;;;;;;55.13;37.35;;;;;;;;;;5019922;28;20045;-77
2023/04/09 00:35:33;;;;;;;55.75;39.28;;;;;;;;;;5013909;28;20053;-78
2023/04/09 00:37:59;;;;;;;53.75;38.45;;;;;;;;;;5023111;28;20056;-79
2023/04/09 00:40:25;;;;;;;53.08;38.33;;;;;;;;;;5016107;28;20053;-78
2023/04/09 00:42:51;;;;;;;54.45;38.03;;;;;;;;;;5039146;28;20440;-78
2023/04/09 00:45:17;;;;;;;54.10;38.63;;;;;;;;;;5028983;28;20107;-78
2023/04/09 00:47:45;;;;;;;53.28;37.72;;;;;;;;;;5043371;28;20504;-78
2023/04/09 00:50:11;;;;;;;60.97;39.92;;;;;;;;;;5034387;28;20044;-78
2023/04/09 00:52:37;;;;;;;59.55;37.45;;;;;;;;;;5020904;28;20087;-78
2023/04/09 00:55:05;;;;;;;56.08;39.42;;;;;;;;;;5010945;28;1093010;-77
2023/04/09 00:57:31;;;;;;;53.55;38.30;;;;;;;;;;5046393;28;20052;-78
2023/04/09 00:59:58;;;;;;;53.28;36.78;;;;;;;;;;5016330;28;20048;-78
2023/04/09 01:02:24;;;;;;;54.40;37.63;;;;;;;;;;5023860;28;20488;-78
2023/04/09 01:04:50;;;;;;;53.22;38.22;;;;;;;;;;5015339;28;20362;-78
2023/04/09 01:07:19;;;;;;;54.58;37.50;;;;;;;;;;5024885;28;20473;-78
2023/04/09 01:10:07;;;;;;;53.70;37.50;;;;;;;;;;5029892;28;20108;-78
2023/04/09 01:12:36;;;;;;;51.15;35.58;;;;;;;;;;5041570;28;20117;-78
2023/04/09 01:15:05;;;;;;;53.20;36.47;;;;;;;;;;5030161;28;20049;-78
2023/04/09 01:17:31;;;;;;;53.92;37.33;;;;;;;;;;5018165;28;20042;-78
2023/04/09 01:20:07;;;;;;;55.58;38.22;;;;;;;;;;5015847;28;20052;-78
2023/04/09 01:22:41;;;;;;;52.67;38.17;;;;;;;;;;5025407;28;20508;-78
2023/04/09 01:25:29;;;;;;;51.30;37.45;;;;;;;;;;5030664;28;20030;-78
2023/04/09 01:28:09;;;;;;;57.90;38.85;;;;;;;;;;5021386;28;20057;-78
2023/04/09 01:30:35;;;;;;;56.10;39.10;;;;;;;;;;5042469;28;20041;-78
2023/04/09 01:33:03;;;;;;;57.88;38.58;;;;;;;;;;5013435;28;20509;-77
2023/04/09 01:35:29;;;;;;;54.75;38.22;;;;;;;;;;5018335;28;20080;-78
2023/04/09 01:37:55;;;;;;;54.83;38.17;;;;;;;;;;5024044;28;20099;-78
2023/04/09 01:40:22;;;;;;;52.30;38.88;;;;;;;;;;5023019;28;20040;-78
2023/04/09 01:42:49;;;;;;;57.75;38.85;;;;;;;;;;5038224;28;20494;-77
2023/04/09 01:45:16;;;;;;;55.92;39.30;;;;;;;;;;5027925;28;20080;-77
2023/04/09 01:47:42;;;;;;;56.45;39.55;;;;;;;;;;5014584;28;20077;-78
2023/04/09 01:50:08;;;;;;;58.75;40.17;;;;;;;;;;5021900;28;20053;-78
2023/04/09 01:52:34;;;;;;;56.72;39.00;;;;;;;;;;5031264;28;20076;-78
2023/04/09 01:55:00;;;;;;;58.05;41.15;;;;;;;;;;5039703;28;20465;-78
2023/04/09 01:57:26;;;;;;;58.17;39.88;;;;;;;;;;5030502;28;20049;-78
2023/04/09 01:59:54;;;;;;;55.05;39.80;;;;;;;;;;5020977;28;20477;-78
2023/04/09 02:02:28;;;;;;;55.90;38.95;;;;;;;;;;5031168;28;20049;-78
2023/04/09 02:04:57;;;;;;;56.53;40.22;;;;;;;;;;5019105;28;20042;-78
2023/04/09 02:07:42;;;;;;;55.47;39.80;;;;;;;;;;5016875;28;20050;-78
2023/04/09 02:10:10;;;;;;;57.22;40.50;;;;;;;;;;5038038;28;20048;-78
2023/04/09 02:12:37;;;;;;;58.67;40.47;;;;;;;;;;5052923;28;20124;-78
2023/04/09 02:15:06;;;;;;;58.65;40.88;;;;;;;;;;5026212;28;20471;-78
2023/04/09 02:17:32;;;;;;;62.55;40.95;;;;;;;;;;5032454;28;20064;-78
2023/04/09 02:19:58;;;;;;;58.60;41.03;;;;;;;;;;5030898;28;20041;-78
2023/04/09 02:22:24;;;;;;;58.20;41.38;;;;;;;;;;5026911;28;20044;-78
2023/04/09 02:24:50;;;;;;;58.50;40.53;;;;;;;;;;5021228;28;20041;-77
2023/04/09 02:27:16;;;;;;;56.30;40.25;;;;;;;;;;5015784;28;20088;-78
2023/04/09 02:29:42;;;;;;;58.33;40.45;;;;;;;;;;5034036;28;20388;-78
2023/04/09 02:32:08;;;;;;;59.05;40.95;;;;;;;;;;5033736;28;20075;-77
2023/04/09 02:34:34;;;;;;;63.20;42.83;;;;;;;;;;5032707;28;20085;-77
2023/04/09 02:37:00;;;;;;;57.03;41.15;;;;;;;;;;5019722;28;20513;-78
2023/04/09 02:39:26;;;;;;;60.13;41.95;;;;;;;;;;5036772;28;20514;-78
2023/04/09 02:41:52;;;;;;;61.50;41.83;;;;;;;;;;5032140;28;20060;-78
2023/04/09 02:44:18;;;;;;;60.67;40.35;;;;;;;;;;5044630;28;20046;-78
2023/04/09 02:46:45;;;;;;;58.45;39.97;;;;;;;;;;5015638;28;20566;-78
2023/04/09 02:49:11;;;;;;;58.97;40.15;;;;;;;;;;5039324;28;20794;-78
2023/04/09 02:51:37;;;;;;;60.80;41.40;;;;;;;;;;5040052;28;20049;-78
2023/04/09 02:54:04;;;;;;;57.30;40.17;;;;;;;;;;5041646;28;20076;-78
2023/04/09 02:56:30;;;;;;;56.15;40.05;;;;;;;;;;5035927;28;20099;-78
2023/04/09 02:58:56;;;;;;;57.97;40.47;;;;;;;;;;5021466;28;20079;-78
2023/04/09 03:01:22;;;;;;;57.20;40.05;;;;;;;;;;5022043;28;20057;-78
2023/04/09 03:03:48;;;;;;;59.92;40.58;;;;;;;;;;5025899;28;20049;-78
2023/04/09 03:06:14;;;;;;;58.90;39.67;;;;;;;;;;5038548;28;20559;-78
2023/04/09 03:08:40;;;;;;;58.78;39.65;;;;;;;;;;5035346;28;20098;-78
2023/04/09 03:11:06;;;;;;;56.80;39.63;;;;;;;;;;5029968;28;20045;-78
2023/04/09 03:13:32;;;;;;;53.13;38.33;;;;;;;;;;5034799;28;20180;-78
2023/04/09 03:15:58;;;;;;;55.47;37.42;;;;;;;;;;5031641;28;20047;-78
2023/04/09 03:18:24;;;;;;;55.95;37.45;;;;;;;;;;5039575;28;20034;-78
2023/04/09 03:20:50;;;;;;;52.97;35.90;;;;;;;;;;5044536;28;20396;-78
2023/04/09 03:23:16;;;;;;;53.35;37.28;;;;;;;;;;5018919;28;20045;-78
2023/04/09 03:25:42;;;;;;;58.90;38.88;;;;;;;;;;5024705;28;20046;-77
2023/04/09 03:28:08;;;;;;;60.13;39.53;;;;;;;;;;5034598;28;20049;-78
2023/04/09 03:30:34;;;;;;;55.55;37.85;;;;;;;;;;5020516;28;20134;-78
2023/04/09 03:33:00;;;;;;;55.47;37.38;;;;;;;;;;5027750;28;20080;-78
2023/04/09 03:35:26;;;;;;;63.63;38.25;;;;;;;;;;5025263;28;20400;-78
2023/04/09 03:37:52;;;;;;;60.22;39.10;;;;;;;;;;5035114;28;20094;-78
2023/04/09 03:40:18;;;;;;;63.97;38.30;;;;;;;;;;5025058;28;20060;-78
2023/04/09 03:42:44;;;;;;;64.45;39.75;;;;;;;;;;5031790;28;20112;-78
2023/04/09 03:45:10;;;;;;;66.93;39.65;;;;;;;;;;5032678;28;20041;-78
2023/04/09 03:47:36;;;;;;;64.10;39.75;;;;;;;;;;5044133;28;20150;-78
2023/04/09 03:50:02;;;;;;;64.18;39.08;;;;;;;;;;5023057;28;20049;-78
2023/04/09 03:52:29;;;;;;;63.38;39.65;;;;;;;;;;5040233;28;20124;-78
2023/04/09 03:54:55;;;;;;;73.88;41.35;;;;;;;;;;5017156;28;20067;-78
2023/04/09 03:57:21;;;;;;;66.82;41.92;;;;;;;;;;5019961;28;20049;-77
2023/04/09 03:59:47;;;;;;;65.28;39.92;;;;;;;;;;5036567;28;20052;-78
2023/04/09 04:02:13;;;;;;;74.57;42.25;;;;;;;;;;5017848;28;20041;-78
2023/04/09 04:04:39;;;;;;;72.22;41.05;;;;;;;;;;5022965;28;20076;-78
2023/04/09 04:07:06;;;;;;;69.28;42.28;;;;;;;;;;5025458;28;20488;-78
2023/04/09 04:09:32;;;;;;;74.10;41.40;;;;;;;;;;5014520;28;20124;-78
2023/04/09 04:12:00;;;;;;;70.88;41.42;;;;;;;;;;5014009;28;20470;-78
2023/04/09 04:14:26;;;;;;;72.88;42.13;;;;;;;;;;5031247;28;20045;-78
2023/04/09 04:16:52;;;;;;;74.03;42.67;;;;;;;;;;5019562;28;20049;-77
2023/04/09 04:19:19;;;;;;;75.95;41.92;;;;;;;;;;5039419;28;20128;-78
2023/04/09 04:21:45;;;;;;;71.18;41.38;;;;;;;;;;5028127;28;20477;-78
2023/04/09 04:24:11;;;;;;;79.30;41.40;;;;;;;;;;5029955;28;20110;-78
2023/04/09 04:26:37;;;;;;;75.82;42.25;;;;;;;;;;5020926;28;20042;-78
2023/04/09 04:29:03;;;;;;;75.35;42.25;;;;;;;;;;5026450;28;20095;-78
2023/04/09 04:31:29;;;;;;;70.68;40.15;;;;;;;;;;5037830;28;20481;-78
2023/04/09 04:33:55;;;;;;;79.25;40.58;;;;;;;;;;5023096;28;20052;-77
2023/04/09 04:36:21;;;;;;;70.10;39.17;;;;;;;;;;5039928;28;20057;-78
2023/04/09 04:38:47;;;;;;;69.93;39.25;;;;;;;;;;5042941;28;20481;-77
2023/04/09 04:41:13;;;;;;;71.03;40.40;;;;;;;;;;5043445;28;20041;-77
2023/04/09 04:43:40;;;;;;;73.53;39.63;;;;;;;;;;5015668;28;20056;-77
2023/04/09 04:46:06;;;;;;;74.75;42.13;;;;;;;;;;5020823;28;20249;-78
2023/04/09 04:48:32;;;;;;;80.63;42.38;;;;;;;;;;5039122;28;20114;-78
2023/04/09 04:50:59;;;;;;;73.70;41.20;;;;;;;;;;5029484;28;20541;-78
2023/04/09 04:53:25;;;;;;;77.82;42.03;;;;;;;;;;5031522;28;20368;-78
2023/04/09 04:55:51;;;;;;;76.32;42.72;;;;;;;;;;5029006;28;20059;-78
2023/04/09 04:58:17;;;;;;;75.18;42.90;;;;;;;;;;5016549;28;20077;-78
2023/04/09 05:00:43;;;;;;;72.90;42.28;;;;;;;;;;5048916;28;20048;-78
2023/04/09 05:03:09;;;;;;;71.28;41.63;;;;;;;;;;5016315;28;20045;-78
2023/04/09 05:05:35;;;;;;;77.85;43.55;;;;;;;;;;5013999;28;20057;-78
2023/04/09 05:08:01;;;;;;;74.53;41.88;;;;;;;;;;5016943;28;20048;-77
2023/04/09 05:10:27;;;;;;;75.85;43.20;;;;;;;;;;5023495;28;20115;-77
2023/04/09 05:12:53;;;;;;;76.85;41.38;;;;;;;;;;5041923;28;20448;-77
2023/04/09 05:15:19;;;;;;;68.82;38.92;;;;;;;;;;5039633;28;20060;-78
2023/04/09 05:17:45;;;;;;;77.63;44.08;;;;;;;;;;5031847;28;20396;-78
2023/04/09 05:20:11;;;;;;;75.43;42.42;;;;;;;;;;5042281;28;20045;-78
2023/04/09 05:22:37;;;;;;;74.47;42.17;;;;;;;;;;5026554;28;20137;-78
2023/04/09 05:25:04;;;;;;;76.85;42.30;;;;;;;;;;5034909;28;20120;-78
2023/04/09 05:27:30;;;;;;;75.05;41.25;;;;;;;;;;5041893;28;20476;-78
2023/04/09 05:29:56;;;;;;;71.88;42.55;;;;;;;;;;5029369;28;20045;-78
2023/04/09 05:32:22;;;;;;;70.20;41.22;;;;;;;;;;5029337;28;20045;-78
2023/04/09 05:34:48;;;;;;;74.53;41.53;;;;;;;;;;5019493;28;20049;-77
2023/04/09 05:37:14;;;;;;;73.82;40.17;;;;;;;;;;5030081;28;20850;-78
2023/04/09 05:39:40;;;;;;;68.88;40.80;;;;;;;;;;5037017;28;20064;-78
2023/04/09 05:42:06;;;;;;;70.55;41.58;;;;;;;;;;5020182;28;20124;-78
2023/04/09 05:44:32;;;;;;;73.28;42.75;;;;;;;;;;5021693;28;20124;-78
2023/04/09 05:46:58;;;;;;;73.32;41.53;;;;;;;;;;5029178;28;20563;-78
2023/04/09 05:49:24;;;;;;;65.57;39.80;;;;;;;;;;5046378;28;20404;-78
2023/04/09 05:51:51;;;;;;;71.68;41.20;;;;;;;;;;5036831;28;20072;-78
2023/04/09 05:54:17;;;;;;;72.95;40.22;;;;;;;;;;5022088;28;20042;-78
2023/04/09 05:56:43;;;;;;;70.82;39.83;;;;;;;;;;5037085;28;20064;-78
2023/04/09 05:59:09;;;;;;;69.50;38.35;;;;;;;;;;5036319;28;20155;-77
2023/04/09 06:01:35;;;;;;;59.63;37.60;;;;;;;;;;5049077;28;20033;-78
2023/04/09 06:04:01;;;;;;;65.97;38.03;;;;;;;;;;5028572;28;20041;-78
2023/04/09 06:06:27;;;;;;;62.35;37.30;;;;;;;;;;5041112;28;20042;-78
2023/04/09 06:08:53;;;;;;;64.90;37.33;;;;;;;;;;5025986;28;20094;-78
2023/04/09 06:11:20;;;;;;;65.97;39.55;;;;;;;;;;5015912;28;20179;-78
2023/04/09 06:13:46;;;;;;;65.43;39.28;;;;;;;;;;5018603;28;20049;-78
2023/04/09 06:16:12;;;;;;;69.28;38.00;;;;;;;;;;5018974;28;20103;-78
2023/04/09 06:18:38;;;;;;;66.95;37.80;;;;;;;;;;5027791;28;20045;-78
2023/04/09 06:21:05;;;;;;;63.58;36.65;;;;;;;;;;5023839;28;20053;-77
2023/04/09 06:23:32;;;;;;;64.25;36.92;;;;;;;;;;5037008;28;20032;-78
2023/04/09 06:25:58;;;;;;;63.30;36.20;;;;;;;;;;5037663;28;20045;-78
2023/04/09 06:28:24;;;;;;;56.35;33.10;;;;;;;;;;5052679;28;20049;-78
2023/04/09 06:30:52;;;;;;;57.10;34.45;;;;;;;;;;5022409;28;20132;-78
2023/04/09 06:33:19;;;;;;;56.08;32.25;;;;;;;;;;5050124;28;20128;-78
2023/04/09 06:35:45;;;;;;;56.20;31.77;;;;;;;;;;5042672;28;20044;-79
2023/04/09 06:38:11;;;;;;;51.45;29.67;;;;;;;;;;5017049;28;20048;-79
2023/04/09 06:40:38;;;;;;;49.80;29.52;;;;;;;;;;5035731;28;20064;-78
2023/04/09 06:43:04;;;;;;;44.17;27.02;;;;;;;;;;5040793;28;20052;-78
2023/04/09 06:45:31;;;;;;;41.55;25.17;;;;;;;;;;5016795;28;20072;-78
2023/04/09 06:47:57;;;;;;;42.63;25.30;;;;;;;;;;5030111;28;20405;-78
2023/04/09 06:50:23;;;;;;;39.88;24.17;;;;;;;;;;5024511;28;20136;-78
2023/04/09 06:52:50;;;;;;;40.13;25.80;;;;;;;;;;5022102;28;20051;-78
2023/04/09 06:55:16;;;;;;;38.42;25.33;;;;;;;;;;5013054;28;20589;-79
2023/04/09 06:57:42;;;;;;;41.30;25.50;;;;;;;;;;5014052;28;20115;-79
2023/04/09 07:00:08;;;;;;;41.58;25.20;;;;;;;;;;5013171;28;20113;-78
2023/04/09 07:02:35;;;;;;;40.10;26.15;;;;;;;;;;5014619;28;20092;-78
2023/04/09 07:05:02;;;;;;;40.38;25.90;;;;;;;;;;5015037;28;20038;-78
2023/04/09 07:07:28;;;;;;;46.35;27.92;;;;;;;;;;5017904;28;20486;-79
2023/04/09 07:09:54;;;;;;;45.00;27.67;;;;;;;;;;5014517;28;20084;-78
2023/04/09 07:12:30;;;;;;;45.55;28.38;;;;;;;;;;5012761;28;20085;-79
2023/04/09 07:14:59;;;;;;;47.33;29.30;;;;;;;;;;5017404;28;20050;-78
2023/04/09 07:17:25;;;;;;;46.63;28.52;;;;;;;;;;5015666;28;20046;-78
2023/04/09 07:19:52;;;;;;;45.60;28.35;;;;;;;;;;5028396;28;20104;-78
2023/04/09 07:22:21;;;;;;;49.80;29.10;;;;;;;;;;5017471;28;20383;-78
2023/04/09 07:24:52;;;;;;;47.13;29.67;;;;;;;;;;5014728;28;20919;-78
2023/04/09 07:27:20;;;;;;;48.53;29.27;;;;;;;;;;5028721;28;20087;-78
2023/04/09 07:29:46;;;;;;;47.70;29.95;;;;;;;;;;5025785;28;20096;-78
2023/04/09 07:32:12;;;;;;;47.83;30.17;;;;;;;;;;5015111;28;20053;-78
2023/04/09 07:34:38;;;;;;;47.60;30.17;;;;;;;;;;5017957;28;20226;-77
2023/04/09 07:37:04;;;;;;;47.83;29.55;;;;;;;;;;5029619;28;20060;-78
2023/04/09 07:39:30;;;;;;;46.90;29.02;;;;;;;;;;5028891;28;20080;-77
2023/04/09 07:41:56;;;;;;;47.53;29.55;;;;;;;;;;5024459;28;20046;-77
2023/04/09 07:44:23;;;;;;;47.55;29.73;;;;;;;;;;5013239;28;20109;-79
2023/04/09 07:46:49;;;;;;;47.22;28.42;;;;;;;;;;5013394;28;20029;-79
2023/04/09 07:49:16;;;;;;;45.95;29.83;;;;;;;;;;5005077;28;20170;-79
2023/04/09 07:51:42;;;;;;;48.38;28.52;;;;;;;;;;5022112;28;20123;-79
2023/04/09 07:54:08;;;;;;;42.67;27.75;;;;;;;;;;5025959;28;20405;-79
2023/04/09 07:56:34;;;;;;;48.38;29.38;;;;;;;;;;5014492;28;20081;-79
2023/04/09 07:59:00;;;;;;;42.75;27.75;;;;;;;;;;5019577;28;20052;-77
2023/04/09 08:01:26;;;;;;;46.75;29.05;;;;;;;;;;5025973;28;20042;-77
2023/04/09 08:03:53;;;;;;;44.25;28.85;;;;;;;;;;5018131;28;20038;-76
2023/04/09 08:06:19;;;;;;;40.30;26.45;;;;;;;;;;5026651;28;20057;-77
2023/04/09 08:08:45;;;;;;;41.35;25.58;;;;;;;;;;5016820;28;20041;-77
2023/04/09 08:11:11;;;;;;;43.78;27.17;;;;;;;;;;5016834;28;20053;-78
2023/04/09 08:13:37;;;;;;;42.00;26.10;;;;;;;;;;5015658;28;20049;-78
2023/04/09 08:16:03;;;;;;;41.58;27.35;;;;;;;;;;5012935;28;20094;-78
2023/04/09 08:18:30;;;;;;;39.15;26.27;;;;;;;;;;5021675;28;20116;-83
2023/04/09 08:20:56;;;;;;;38.80;24.58;;;;;;;;;;5016785;28;20041;-87
2023/04/09 08:23:22;;;;;;;37.83;24.83;;;;;;;;;;5015245;28;20120;-81
2023/04/09 08:25:48;;;;;;;38.50;23.75;;;;;;;;;;5017972;28;20068;-88
2023/04/09 08:28:14;;;;;;;37.38;24.77;;;;;;;;;;5025307;28;20057;-88
2023/04/09 08:30:40;;;;;;;41.17;25.95;;;;;;;;;;5020937;28;20498;-86
2023/04/09 08:33:06;;;;;;;42.17;26.45;;;;;;;;;;5022969;28;20139;-87
2023/04/09 08:35:32;;;;;;;42.55;26.75;;;;;;;;;;5022297;28;20061;-85
2023/04/09 08:37:59;;;;;;;40.75;27.23;;;;;;;;;;5018937;28;20077;-86
2023/04/09 08:40:25;;;;;;;39.67;26.33;;;;;;;;;;5017686;28;20564;-83
2023/04/09 08:42:55;;;;;;;41.22;27.48;;;;;;;;;;5018886;28;20042;-84
2023/04/09 08:45:22;;;;;;;42.70;27.73;;;;;;;;;;5019061;28;20077;-84
2023/04/09 08:47:49;;;;;;;41.95;26.85;;;;;;;;;;5016874;28;20046;-84
2023/04/09 08:50:15;;;;;;;41.40;27.25;;;;;;;;;;5022103;28;20443;-87
2023/04/09 08:52:49;;;;;;;40.13;27.38;;;;;;;;;;5020948;28;20041;-79
2023/04/09 08:55:33;;;;;;;41.55;27.10;;;;;;;;;;5015215;28;20050;-79
2023/04/09 08:57:59;;;;;;;42.70;27.08;;;;;;;;;;5014846;28;21059;-79
2023/04/09 09:00:26;;;;;;;40.10;26.38;;;;;;;;;;5010199;28;20069;-81
2023/04/09 09:03:08;;;;;;;46.35;29.08;;;;;;;;;;5013174;28;20057;-73
2023/04/09 09:05:45;;;;;;;43.80;28.30;;;;;;;;;;5021980;28;20057;-80
2023/04/09 09:08:12;;;;;;;46.65;29.77;;;;;;;;;;5017876;28;20065;-83
2023/04/09 09:10:43;;;;;;;46.60;28.63;;;;;;;;;;5023072;28;20056;-82
2023/04/09 09:13:18;;;;;;;42.95;29.35;;;;;;;;;;5027280;28;20528;-81
2023/04/09 09:15:46;;;;;;;43.03;27.77;;;;;;;;;;5019909;28;20122;-76
2023/04/09 09:18:13;;;;;;;45.70;28.45;;;;;;;;;;5014751;28;20049;-78
2023/04/09 09:20:39;;;;;;;43.20;28.20;;;;;;;;;;5019792;28;20589;-77
2023/04/09 09:23:05;;;;;;;42.67;27.98;;;;;;;;;;5012242;28;20054;-77
2023/04/09 09:25:37;;;;;;;40.95;27.50;;;;;;;;;;5018871;28;20041;-78
2023/04/09 09:28:07;;;;;;;43.25;28.60;;;;;;;;;;5016010;28;20497;-78
2023/04/09 09:30:35;;;;;;;46.60;28.30;;;;;;;;;;5015687;28;20099;-78
2023/04/09 09:33:05;;;;;;;45.78;28.63;;;;;;;;;;5015073;28;20033;-78
2023/04/09 09:35:46;;;;;;;45.05;27.63;;;;;;;;;;5018741;28;20049;-78
2023/04/09 09:38:12;;;;;;;41.15;27.55;;;;;;;;;;5021557;28;20563;-78
2023/04/09 09:40:38;;;;;;;42.28;27.25;;;;;;;;;;5014597;28;20049;-78
2023/04/09 09:43:04;;;;;;;45.80;29.75;;;;;;;;;;5014774;28;20587;-77
2023/04/09 09:45:31;;;;;;;44.08;27.42;;;;;;;;;;5016975;28;20106;-78
2023/04/09 09:47:57;;;;;;;43.45;27.42;;;;;;;;;;5021805;28;20099;-78
2023/04/09 09:50:24;;;;;;;46.63;28.13;;;;;;;;;;5017927;28;20042;-78
2023/04/09 09:52:53;;;;;;;43.35;27.88;;;;;;;;;;5021236;28;20127;-78
2023/04/09 09:55:20;;;;;;;45.25;28.02;;;;;;;;;;5024418;28;20203;-78
2023/04/09 09:57:47;;;;;;;45.53;30.02;;;;;;;;;;5017050;28;20037;-78
2023/04/09 10:00:14;;;;;;;43.30;28.02;;;;;;;;;;5017228;28;20129;-78
2023/04/09 10:02:45;;;;;;;41.20;29.10;;;;;;;;;;5017614;28;20402;-78
2023/04/09 10:05:11;;;;;;;42.63;28.92;;;;;;;;;;5015484;28;20060;-79
2023/04/09 10:07:37;;;;;;;48.58;29.40;;;;;;;;;;5017312;28;20041;-78
2023/04/09 10:10:04;;;;;;;46.35;30.42;;;;;;;;;;5022552;28;20037;-78
2023/04/09 10:12:31;;;;;;;48.50;29.95;;;;;;;;;;5014841;28;20041;-77
2023/04/09 10:14:59;;;;;;;43.95;30.25;;;;;;;;;;5019441;28;20481;-76
2023/04/09 10:17:25;;;;;;;45.50;29.90;;;;;;;;;;5012663;28;20068;-78
2023/04/09 10:19:56;;;;;;;41.50;31.38;;;;;;;;;;5020909;28;20046;-79
2023/04/09 10:22:25;;;;;;;44.50;29.48;;;;;;;;;;5018056;28;20085;-79
2023/04/09 10:24:52;;;;;;;40.28;26.92;;;;;;;;;;5029142;28;20044;-78
2023/04/09 10:27:18;;;;;;;40.13;26.25;;;;;;;;;;5013974;28;20049;-79
2023/04/09 10:29:45;;;;;;;37.70;25.08;;;;;;;;;;5018184;28;20064;-76
2023/04/09 10:32:11;;;;;;;37.45;25.27;;;;;;;;;;5018679;28;20089;-77
2023/04/09 10:34:42;;;;;;;37.70;25.98;;;;;;;;;;5025838;28;20204;-77
2023/04/09 10:37:09;;;;;;;34.85;24.95;;;;;;;;;;5013667;28;20074;-78
2023/04/09 10:39:38;;;;;;;34.33;24.75;;;;;;;;;;5008553;28;20045;-77
2023/04/09 10:42:08;;;;;;;33.22;23.63;;;;;;;;;;5013433;28;20048;-76
2023/04/09 10:44:36;;;;;;;34.90;24.90;;;;;;;;;;5011043;28;20161;-77
2023/04/09 10:47:05;;;;;;;38.33;25.45;;;;;;;;;;5016022;28;20081;-76
2023/04/09 10:49:40;;;;;;;37.88;25.50;;;;;;;;;;5021998;28;20108;-82
2023/04/09 10:52:09;;;;;;;38.28;25.98;;;;;;;;;;5017499;28;20456;-78
2023/04/09 10:54:38;;;;;;;38.03;25.20;;;;;;;;;;5013390;28;20041;-77
2023/04/09 10:57:10;;;;;;;36.65;24.52;;;;;;;;;;5011391;28;20064;-77
2023/04/09 10:59:37;;;;;;;36.22;25.13;;;;;;;;;;5023700;28;20076;-76
2023/04/09 11:02:12;;;;;;;37.67;25.63;;;;;;;;;;5032881;28;20083;-76
2023/04/09 11:04:41;;;;;;;37.70;26.67;;;;;;;;;;5039000;28;20059;-78
2023/04/09 11:07:07;;;;;;;37.55;25.55;;;;;;;;;;5024990;28;20068;-79
2023/04/09 11:09:36;;;;;;;39.45;27.08;;;;;;;;;;5016427;28;20049;-79
2023/04/09 11:12:02;;;;;;;39.70;26.73;;;;;;;;;;5038236;28;20045;-79
2023/04/09 11:14:28;;;;;;;37.28;26.38;;;;;;;;;;5019266;28;20053;-79
2023/04/09 11:16:55;;;;;;;35.67;25.95;;;;;;;;;;5018399;28;20485;-80
2023/04/09 11:19:21;;;;;;;36.67;26.30;;;;;;;;;;5018855;28;20514;-76
2023/04/09 11:21:47;;;;;;;36.15;26.70;;;;;;;;;;5012450;28;20045;-76
2023/04/09 11:24:14;;;;;;;32.65;24.30;;;;;;;;;;5035655;28;20393;-78
2023/04/09 11:26:40;;;;;;;34.03;25.38;;;;;;;;;;5037988;28;20049;-79
2023/04/09 11:29:09;;;;;;;36.72;25.42;;;;;;;;;;5016445;28;20132;-78
2023/04/09 11:31:35;;;;;;;35.28;24.77;;;;;;;;;;5034354;28;20052;-79
2023/04/09 11:34:02;;;;;;;37.20;24.50;;;;;;;;;;5016401;28;20048;-78
2023/04/09 11:36:28;;;;;;;36.83;26.02;;;;;;;;;;5019631;28;20041;-78
2023/04/09 11:38:58;;;;;;;32.55;23.20;;;;;;;;;;5016931;28;20040;-78
2023/04/09 11:41:33;;;;;;;35.92;24.63;;;;;;;;;;5033951;28;20053;-78
2023/04/09 11:44:02;;;;;;;35.25;24.40;;;;;;;;;;5038797;28;20047;-78
2023/04/09 11:46:28;;;;;;;33.65;24.90;;;;;;;;;;5033902;28;20041;-78
2023/04/09 11:48:55;;;;;;;31.00;23.70;;;;;;;;;;5033221;28;20041;-77
2023/04/09 11:51:22;;;;;;;31.42;23.73;;;;;;;;;;5021089;28;20060;-78
2023/04/09 11:53:49;;;;;;;32.28;23.77;;;;;;;;;;5018921;28;20132;-77
2023/04/09 11:56:15;;;;;;;32.25;24.20;;;;;;;;;;5040781;28;20053;-77
2023/04/09 11:58:48;;;;;;;32.35;23.15;;;;;;;;;;5019662;28;20045;-77
2023/04/09 12:01:15;;;;;;;30.38;23.88;;;;;;;;;;5040555;28;20140;-77
2023/04/09 12:03:41;;;;;;;32.55;23.40;;;;;;;;;;5018583;28;20048;-77
2023/04/09 12:06:08;;;;;;;32.03;24.15;;;;;;;;;;5025198;28;20120;-79
2023/04/09 12:08:35;;;;;;;34.28;26.33;;;;;;;;;;5023707;28;20044;-80
2023/04/09 12:11:15;;;;;;;31.08;24.45;;;;;;;;;;5043432;28;20055;-77
2023/04/09 12:13:44;;;;;;;33.42;24.27;;;;;;;;;;5020513;28;20095;-77
2023/04/09 12:16:11;;;;;;;33.97;24.13;;;;;;;;;;5019881;28;20053;-83
2023/04/09 12:18:37;;;;;;;31.35;23.33;;;;;;;;;;5020763;28;20219;-79
2023/04/09 12:21:03;;;;;;;32.15;25.15;;;;;;;;;;5025266;28;20067;-79
2023/04/09 12:23:30;;;;;;;30.33;23.55;;;;;;;;;;5021433;28;20056;-81
2023/04/09 12:26:00;;;;;;;37.30;25.55;;;;;;;;;;5032600;28;20386;-79
2023/04/09 12:28:26;;;;;;;30.10;24.80;;;;;;;;;;5017930;28;20142;-76
2023/04/09 12:30:52;;;;;;;32.47;25.50;;;;;;;;;;5031071;28;21322;-76
2023/04/09 12:33:19;;;;;;;32.05;25.38;;;;;;;;;;5013919;28;20050;-76
2023/04/09 12:35:45;;;;;;;31.45;25.45;;;;;;;;;;5036960;28;20046;-76
2023/04/09 12:38:11;;;;;;;33.58;26.38;;;;;;;;;;5012760;28;20044;-76
2023/04/09 12:40:38;;;;;;;32.65;26.08;;;;;;;;;;5034751;28;20056;-76
2023/04/09 12:43:04;;;;;;;30.55;24.88;;;;;;;;;;5032953;28;20044;-76
2023/04/09 12:45:30;;;;;;;32.13;25.38;;;;;;;;;;5034223;28;20128;-76
2023/04/09 12:47:56;;;;;;;30.25;24.42;;;;;;;;;;5031402;28;20077;-76
2023/04/09 12:50:23;;;;;;;27.52;23.65;;;;;;;;;;5031838;28;20128;-77
2023/04/09 12:52:49;;;;;;;30.73;24.60;;;;;;;;;;5029980;28;20046;-76
2023/04/09 12:55:15;;;;;;;29.65;26.45;;;;;;;;;;5018240;28;20121;-76
2023/04/09 12:57:43;;;;;;;30.65;25.40;;;;;;;;;;5019967;28;20045;-76
2023/04/09 13:00:09;;;;;;;32.10;25.35;;;;;;;;;;5028826;28;20076;-77
2023/04/09 13:02:35;;;;;;;28.85;23.05;;;;;;;;;;5015452;28;20038;-76
2023/04/09 13:05:03;;;;;;;30.73;25.33;;;;;;;;;;5035266;28;20052;-76
2023/04/09 13:07:29;;;;;;;28.98;23.50;;;;;;;;;;5013578;28;20198;-77
2023/04/09 13:09:56;;;;;;;28.50;24.38;;;;;;;;;;5019548;28;20040;-77
2023/04/09 13:12:22;;;;;;;29.73;24.45;;;;;;;;;;5034076;28;20045;-76
2023/04/09 13:14:49;;;;;;;29.67;24.60;;;;;;;;;;5017873;28;20073;-76
2023/04/09 13:17:15;;;;;;;29.52;23.65;;;;;;;;;;5013798;28;20523;-76
2023/04/09 13:19:41;;;;;;;28.42;23.50;;;;;;;;;;5033141;28;20048;-76
2023/04/09 13:22:07;;;;;;;29.15;23.08;;;;;;;;;;5036404;28;20128;-76
2023/04/09 13:24:36;;;;;;;27.48;22.77;;;;;;;;;;5033466;28;20049;-76
2023/04/09 13:27:03;;;;;;;29.58;23.58;;;;;;;;;;5019367;28;20038;-76
2023/04/09 13:29:30;;;;;;;28.30;23.20;;;;;;;;;;5016411;28;20575;-76
2023/04/09 13:32:01;;;;;;;26.90;22.88;;;;;;;;;;5020317;28;20045;-77
2023/04/09 13:34:28;;;;;;;24.20;21.42;;;;;;;;;;5033125;28;20486;-76
2023/04/09 13:36:55;;;;;;;26.63;23.10;;;;;;;;;;5032356;28;20100;-76
2023/04/09 13:39:24;;;;;;;24.58;21.52;;;;;;;;;;5014904;28;20120;-76
2023/04/09 13:41:50;;;;;;;27.15;22.25;;;;;;;;;;5031946;28;20041;-76
2023/04/09 13:44:16;;;;;;;25.10;21.98;;;;;;;;;;5012894;28;20136;-76
2023/04/09 13:46:42;;;;;;;25.25;21.77;;;;;;;;;;5030390;28;20144;-76
2023/04/09 13:49:08;;;;;;;27.80;22.42;;;;;;;;;;5031553;28;20474;-77
2023/04/09 13:51:34;;;;;;;27.27;21.98;;;;;;;;;;5035166;28;20057;-76
2023/04/09 13:54:00;;;;;;;27.38;22.00;;;;;;;;;;5039363;28;20041;-76
2023/04/09 13:56:26;;;;;;;27.77;21.92;;;;;;;;;;5032975;28;20067;-76
2023/04/09 13:58:52;;;;;;;24.42;20.88;;;;;;;;;;5019435;28;20500;-76
2023/04/09 14:01:18;;;;;;;25.95;22.00;;;;;;;;;;5035728;28;20119;-76
2023/04/09 14:03:44;;;;;;;24.80;21.20;;;;;;;;;;5032960;28;20041;-76
2023/04/09 14:06:12;;;;;;;24.52;20.77;;;;;;;;;;5033871;28;20087;-76
2023/04/09 14:08:38;;;;;;;23.60;19.85;;;;;;;;;;5025290;28;20044;-76
2023/04/09 14:11:04;;;;;;;24.50;20.17;;;;;;;;;;5018860;28;20485;-76
2023/04/09 14:13:30;;;;;;;23.92;21.00;;;;;;;;;;5021481;28;20118;-76
2023/04/09 14:15:56;;;;;;;23.67;20.52;;;;;;;;;;5016092;28;20056;-76